Terminal Aerodrome Forecast
Issued by NWS

Home | Current Version | Previous Version | Text Only | Print | Product List | Glossary On
Versions: 1 2 3 4 5 6 7 8 9 10 11 12 13 14 15 16 17 18 19 20 21 22
000
FTUS43 KDLH 262100 AAB
TAFHYR
TAF AMD
KHYR 262117Z 2621/2718 32004KT P6SM BKN016 OVC023
      TEMPO 2621/2623 4SM -SN OVC014
     FM271000 33005KT P6SM SCT015=

USA.gov is the U.S. government's official web portal to all federal, state and local government web resources and services.